createdAt,value
2023-10-09T00:02:25.444Z,90
2023-10-09T00:05:25.883Z,90
2023-10-09T00:08:26.761Z,90
2023-10-09T00:11:25.464Z,91
2023-10-09T00:14:25.677Z,91
2023-10-09T00:17:26.341Z,91
2023-10-09T00:20:25.937Z,91
2023-10-09T00:23:26.078Z,91
2023-10-09T00:26:26.859Z,91
2023-10-09T00:29:25.977Z,91
2023-10-09T00:32:27.494Z,91
2023-10-09T00:35:29.359Z,91
2023-10-09T00:38:27.406Z,91
2023-10-09T00:41:27.812Z,91
2023-10-09T00:44:28.977Z,91
2023-10-09T00:47:27.427Z,91
2023-10-09T00:50:27.694Z,91
2023-10-09T00:53:28.413Z,91
2023-10-09T00:56:28.014Z,92
2023-10-09T00:59:24.116Z,92
2023-10-09T01:02:24.696Z,92
2023-10-09T01:05:26.574Z,92
2023-10-09T01:08:24.565Z,92
2023-10-09T01:11:25.190Z,92
2023-10-09T01:14:27.150Z,92
2023-10-09T01:17:24.954Z,93
2023-10-09T01:20:25.304Z,93
2023-10-09T01:23:26.162Z,93
2023-10-09T01:26:25.455Z,93
2023-10-09T01:29:27.426Z,93
2023-10-09T01:32:25.920Z,93
2023-10-09T01:35:26.079Z,93
2023-10-09T01:38:26.753Z,93
2023-10-09T01:41:27.485Z,93
2023-10-09T01:44:25.416Z,94
2023-10-09T01:47:25.891Z,94
2023-10-09T01:50:27.705Z,94
2023-10-09T01:53:25.690Z,94
2023-10-09T01:56:25.859Z,94
2023-10-09T01:59:23.667Z,94
2023-10-09T02:02:22.296Z,94
2023-10-09T02:05:22.575Z,94
2023-10-09T02:08:23.309Z,94
2023-10-09T02:11:22.950Z,95
2023-10-09T02:14:23.052Z,95
2023-10-09T02:17:23.810Z,95
2023-10-09T02:20:25.709Z,95
2023-10-09T02:23:24.312Z,95
2023-10-09T02:27:55.817Z,95
2023-10-09T02:29:27.103Z,95
2023-10-09T02:32:25.308Z,95
2023-10-09T02:35:27.074Z,95
2023-10-09T02:38:25.138Z,95
2023-10-09T02:41:25.588Z,95
2023-10-09T02:44:28.237Z,96
2023-10-09T02:47:25.331Z,96
2023-10-09T02:51:07.693Z,96
2023-10-09T02:53:26.336Z,96
2023-10-09T02:56:29.337Z,96
2023-10-09T02:59:21.298Z,96
2023-10-09T03:02:21.794Z,96
2023-10-09T03:05:22.596Z,96
2023-10-09T03:08:21.323Z,96
2023-10-09T03:11:21.522Z,96
2023-10-09T03:14:22.320Z,96
2023-10-09T03:17:21.649Z,96
2023-10-09T03:23:22.744Z,96
2023-10-09T03:26:36.517Z,97
2023-10-09T03:29:23.207Z,97
2023-10-09T03:32:24.969Z,97
2023-10-09T03:35:23.077Z,97
2023-10-09T03:38:23.296Z,97
2023-10-09T03:41:24.186Z,97
2023-10-09T03:44:22.805Z,97
2023-10-09T03:47:23.060Z,97
2023-10-09T03:50:23.852Z,97
2023-10-09T03:53:23.510Z,97
2023-10-09T03:56:23.595Z,97
2023-10-09T03:59:21.267Z,97
2023-10-09T04:02:22.980Z,97
2023-10-09T04:05:20.982Z,97
2023-10-09T04:08:21.528Z,98
2023-10-09T04:11:23.232Z,98
2023-10-09T04:14:21.772Z,98
2023-10-09T04:17:22.486Z,98
2023-10-09T04:20:24.286Z,98
2023-10-09T04:23:25.746Z,98
2023-10-09T04:26:24.037Z,98
2023-10-09T04:29:23.592Z,98
2023-10-09T04:32:23.692Z,98
2023-10-09T04:35:24.335Z,98
2023-10-09T04:38:26.906Z,98
2023-10-09T04:41:24.111Z,98
2023-10-09T04:44:24.623Z,98
2023-10-09T04:47:30.372Z,98
2023-10-09T04:50:24.236Z,98
2023-10-09T04:53:24.563Z,98
2023-10-09T04:56:25.663Z,98
2023-10-09T04:59:19.278Z,98
2023-10-09T05:02:19.484Z,99
2023-10-09T05:05:20.283Z,99
2023-10-09T05:08:19.980Z,99
2023-10-09T05:11:21.911Z,99
2023-10-09T05:14:21.686Z,99
2023-10-09T05:17:20.436Z,99
2023-10-09T05:20:22.065Z,99
2023-10-09T05:23:23.437Z,99
2023-10-09T05:26:21.390Z,99
2023-10-09T05:29:21.689Z,99
2023-10-09T05:32:22.575Z,99
2023-10-09T05:35:21.324Z,99
2023-10-09T05:38:21.557Z,99
2023-10-09T05:41:22.195Z,99
2023-10-09T05:44:21.851Z,99
2023-10-09T05:47:22.015Z,99
2023-10-09T05:50:22.673Z,99
2023-10-09T05:53:23.346Z,99
2023-10-09T05:56:21.496Z,99
2023-10-09T05:59:18.044Z,99
2023-10-09T06:02:19.825Z,99
2023-10-09T06:05:17.820Z,100
2023-10-09T06:08:18.695Z,100
2023-10-09T06:11:20.449Z,100
2023-10-09T06:14:18.410Z,100
2023-10-09T06:17:19.937Z,100
2023-10-09T06:20:18.613Z,100
2023-10-09T06:23:18.808Z,100
2023-10-09T06:26:19.517Z,100
2023-10-09T06:29:21.191Z,100
2023-10-09T06:32:19.275Z,100
2023-10-09T06:35:19.693Z,100
2023-10-09T06:38:21.595Z,100
2023-10-09T06:41:19.601Z,100
2023-10-09T06:44:22.544Z,100
2023-10-09T06:47:20.870Z,100
2023-10-09T06:50:19.506Z,100
2023-10-09T06:53:24.030Z,100
2023-10-09T06:56:20.541Z,100
2023-10-09T06:59:17.053Z,100
2023-10-09T07:02:17.186Z,100
2023-10-09T07:05:19.220Z,100
2023-10-09T07:08:17.067Z,100
2023-10-09T07:11:18.668Z,100
2023-10-09T07:14:19.307Z,100
2023-10-09T07:17:17.800Z,100
2023-10-09T07:20:18.061Z,100
2023-10-09T07:23:19.887Z,100
2023-10-09T07:26:17.875Z,100
2023-10-09T07:29:18.213Z,100
2023-10-09T07:32:18.981Z,100
2023-10-09T07:35:17.699Z,100
2023-10-09T07:38:17.930Z,100
2023-10-09T07:41:18.557Z,100
2023-10-09T07:44:18.285Z,100
2023-10-09T07:47:18.587Z,100
2023-10-09T07:50:24.229Z,100
2023-10-09T07:53:20.873Z,100
2023-10-09T07:56:20.675Z,100
2023-10-09T07:59:20.085Z,100
2023-10-09T08:02:19.708Z,100
2023-10-09T08:05:19.978Z,100
2023-10-09T08:08:38.670Z,100
2023-10-09T08:11:19.498Z,100
2023-10-09T08:14:19.822Z,100
2023-10-09T08:17:20.406Z,100
2023-10-09T08:20:19.980Z,100
2023-10-09T08:23:20.097Z,100
2023-10-09T08:26:25.881Z,100
2023-10-09T08:29:22.562Z,100
2023-10-09T08:38:23.061Z,100
2023-10-09T08:41:20.865Z,101
2023-10-09T08:44:21.320Z,100
2023-10-09T08:47:22.215Z,100
2023-10-09T08:50:21.099Z,100
2023-10-09T08:53:21.370Z,100
2023-10-09T08:56:22.630Z,100
2023-10-09T08:59:20.973Z,100
2023-10-09T09:02:21.175Z,100
2023-10-09T09:05:27.200Z,100
2023-10-09T09:08:20.675Z,100
2023-10-09T09:11:20.751Z,100
2023-10-09T09:14:21.948Z,100
2023-10-09T09:17:21.272Z,100
2023-10-09T09:20:21.100Z,100
2023-10-09T09:23:21.996Z,100
2023-10-09T09:26:23.677Z,100
2023-10-09T09:29:21.846Z,100
2023-10-09T09:32:22.383Z,100
2023-10-09T09:35:24.253Z,100
2023-10-09T09:38:22.220Z,100
2023-10-09T09:41:22.537Z,100
2023-10-09T09:44:23.421Z,100
2023-10-09T09:47:22.415Z,100
2023-10-09T09:50:22.545Z,100
2023-10-09T09:53:23.236Z,100
2023-10-09T09:56:22.424Z,100
2023-10-09T09:59:22.860Z,100
2023-10-09T10:02:23.875Z,100
2023-10-09T10:05:22.495Z,100
2023-10-09T10:08:22.615Z,100
2023-10-09T10:11:23.221Z,100
2023-10-09T10:14:22.912Z,100
2023-10-09T10:17:23.251Z,100
2023-10-09T10:20:23.886Z,100
2023-10-09T10:23:25.608Z,100
2023-10-09T10:26:23.716Z,100
2023-10-09T10:29:24.410Z,100
2023-10-09T10:32:26.130Z,100
2023-10-09T10:35:24.158Z,100
2023-10-09T10:38:24.587Z,100
2023-10-09T10:41:25.298Z,100
2023-10-09T10:44:24.079Z,100
2023-10-09T10:47:24.509Z,100
2023-10-09T10:50:25.246Z,100
2023-10-09T10:53:26.017Z,100
2023-10-09T10:56:25.510Z,100
2023-10-09T10:59:28.902Z,100
2023-10-09T11:02:25.388Z,100
2023-10-09T11:05:25.737Z,100
2023-10-09T11:08:26.133Z,100
2023-10-09T11:11:25.771Z,100
2023-10-09T11:14:25.968Z,100
2023-10-09T11:17:26.689Z,100
2023-10-09T11:20:27.512Z,100
2023-10-09T11:23:25.744Z,100
2023-10-09T11:26:26.180Z,100
2023-10-09T11:29:27.997Z,100
2023-10-09T11:32:26.029Z,100
2023-10-09T11:35:26.420Z,100
2023-10-09T11:38:27.183Z,100
2023-10-09T11:41:25.960Z,100
2023-10-09T11:44:26.268Z,100
2023-10-09T11:47:27.063Z,100
2023-10-09T11:50:26.698Z,100
2023-10-09T11:53:26.986Z,100
2023-10-09T11:56:28.167Z,100
2023-10-09T11:59:26.886Z,100
2023-10-09T12:02:27.403Z,99
2023-10-09T12:05:28.024Z,100
2023-10-09T12:08:27.595Z,100
2023-10-09T12:11:27.828Z,100
2023-10-09T12:14:28.672Z,100
2023-10-09T12:17:30.431Z,100
2023-10-09T12:20:28.260Z,100
2023-10-09T12:23:28.721Z,100
2023-10-09T12:26:30.631Z,99
2023-10-09T12:29:28.495Z,98
2023-10-09T12:32:28.966Z,98
2023-10-09T12:35:29.798Z,98
2023-10-09T12:39:10.821Z,98
2023-10-09T12:41:29.938Z,98
2023-10-09T12:44:29.228Z,98
2023-10-09T12:47:29.806Z,98
2023-10-09T12:50:30.069Z,98
2023-10-09T12:53:30.930Z,98
2023-10-09T12:56:31.103Z,98
2023-10-09T12:59:30.318Z,98
2023-10-09T13:02:30.471Z,98
2023-10-09T13:05:30.909Z,97
2023-10-09T13:08:30.511Z,97
2023-10-09T13:11:30.620Z,97
2023-10-09T13:14:31.535Z,97
2023-10-09T13:20:31.147Z,97
2023-10-09T13:23:31.544Z,97
2023-10-09T13:26:46.686Z,97
2023-10-09T13:29:34.006Z,97
2023-10-09T13:32:31.948Z,97
2023-10-09T13:35:32.623Z,97
2023-10-09T13:38:31.337Z,97
2023-10-09T13:41:31.532Z,97
2023-10-09T13:44:32.709Z,97
2023-10-09T13:47:32.051Z,97
2023-10-09T13:50:34.078Z,97
2023-10-09T13:53:32.693Z,96
2023-10-09T13:56:31.772Z,96
2023-10-09T13:59:31.100Z,96
2023-10-09T14:02:32.031Z,96
2023-10-09T14:05:31.618Z,96
2023-10-09T14:08:31.703Z,96
2023-10-09T14:11:32.315Z,96
2023-10-09T14:14:33.256Z,96
2023-10-09T14:17:31.127Z,96
2023-10-09T14:20:32.178Z,96
2023-10-09T14:23:33.494Z,96
2023-10-09T14:26:31.464Z,96
2023-10-09T14:29:31.877Z,96
2023-10-09T14:32:32.978Z,96
2023-10-09T14:35:31.599Z,96
2023-10-09T14:38:31.776Z,96
2023-10-09T14:41:32.451Z,96
2023-10-09T14:44:32.499Z,96
2023-10-09T14:47:32.433Z,96
2023-10-09T14:50:33.165Z,96
2023-10-09T14:53:34.900Z,96
2023-10-09T14:56:33.615Z,96
2023-10-09T14:59:32.460Z,96
2023-10-09T15:02:32.071Z,96
2023-10-09T15:08:32.945Z,96
2023-10-09T15:11:34.687Z,96
2023-10-09T15:14:32.951Z,96
2023-10-09T15:17:33.309Z,96
2023-10-09T15:20:35.156Z,96
2023-10-09T15:23:33.070Z,96
2023-10-09T15:26:33.413Z,96
2023-10-09T15:29:34.351Z,96
2023-10-09T15:32:33.151Z,96
2023-10-09T15:38:34.075Z,96
2023-10-09T15:41:33.851Z,96
2023-10-09T15:44:34.195Z,96
2023-10-09T15:47:34.736Z,96
2023-10-09T15:50:35.609Z,96
2023-10-09T15:53:33.779Z,96
2023-10-09T15:56:34.673Z,96
2023-10-09T15:59:32.308Z,96
2023-10-09T16:02:32.517Z,96
2023-10-09T16:08:34.780Z,96
2023-10-09T16:11:32.930Z,96
2023-10-09T16:14:33.396Z,96
2023-10-09T16:17:35.159Z,96
2023-10-09T16:23:33.550Z,96
2023-10-09T16:26:34.496Z,96
2023-10-09T16:29:33.235Z,96
2023-10-09T16:32:33.518Z,96
2023-10-09T16:38:33.920Z,96
2023-10-09T16:41:34.029Z,95
2023-10-09T16:44:34.655Z,95
2023-10-09T16:47:36.419Z,95
2023-10-09T16:53:34.889Z,94
2023-10-09T16:56:35.033Z,94
2023-10-09T16:59:36.396Z,93
2023-10-09T17:02:34.545Z,93
2023-10-09T17:05:31.581Z,93
2023-10-09T17:08:31.832Z,93
2023-10-09T17:11:35.905Z,93
2023-10-09T17:14:32.760Z,93
2023-10-09T17:17:32.449Z,93
2023-10-09T17:20:32.995Z,93
2023-10-09T17:23:33.801Z,93
2023-10-09T17:26:31.774Z,94
2023-10-09T17:29:32.327Z,94
2023-10-09T17:32:34.112Z,94
2023-10-09T17:35:31.868Z,95
2023-10-09T17:38:32.255Z,95
2023-10-09T17:41:33.106Z,95
2023-10-09T17:44:32.239Z,95
2023-10-09T17:47:32.278Z,95
2023-10-09T17:50:32.880Z,95
2023-10-09T17:53:32.093Z,96
2023-10-09T17:56:32.522Z,96
2023-10-09T17:59:31.623Z,96
2023-10-09T18:02:31.376Z,96
2023-10-09T18:05:30.514Z,96
2023-10-09T18:08:31.379Z,96
2023-10-09T18:11:31.365Z,96
2023-10-09T18:14:31.069Z,96
2023-10-09T18:17:31.678Z,96
2023-10-09T18:20:34.989Z,97
2023-10-09T18:26:31.789Z,97
2023-10-09T18:29:33.975Z,97
2023-10-09T18:32:31.702Z,97
2023-10-09T18:35:32.055Z,97
2023-10-09T18:38:32.922Z,97
2023-10-09T18:41:31.639Z,97
2023-10-09T18:44:31.784Z,97
2023-10-09T18:47:32.544Z,97
2023-10-09T18:50:32.265Z,96
2023-10-09T18:53:33.146Z,96
2023-10-09T18:56:33.947Z,96
2023-10-09T18:59:31.309Z,96
2023-10-09T19:02:31.042Z,96
2023-10-09T19:05:31.973Z,96
2023-10-09T19:08:31.479Z,96
2023-10-09T19:11:31.501Z,96
2023-10-09T19:14:32.084Z,96
2023-10-09T19:17:34.078Z,96
2023-10-09T19:20:32.020Z,95
2023-10-09T19:23:32.472Z,95
2023-10-09T19:26:34.338Z,95
2023-10-09T19:29:32.593Z,95
2023-10-09T19:32:32.703Z,95
2023-10-09T19:35:33.568Z,95
2023-10-09T19:38:32.193Z,95
2023-10-09T19:41:32.443Z,95
2023-10-09T19:44:33.304Z,95
2023-10-09T19:47:33.122Z,95
2023-10-09T19:50:33.238Z,95
2023-10-09T19:53:34.322Z,95
2023-10-09T19:56:33.088Z,95
2023-10-09T19:59:31.866Z,95
2023-10-09T20:02:32.310Z,95
2023-10-09T20:05:31.993Z,95
2023-10-09T20:08:32.029Z,95
2023-10-09T20:11:32.734Z,96
2023-10-09T20:14:34.742Z,96
2023-10-09T20:17:32.637Z,96
2023-10-09T20:20:33.038Z,96
2023-10-09T20:23:34.966Z,96
2023-10-09T20:26:32.943Z,96
2023-10-09T20:29:33.547Z,96
2023-10-09T20:32:34.345Z,96
2023-10-09T20:35:32.930Z,96
2023-10-09T20:38:33.174Z,96
2023-10-09T20:41:34.072Z,96
2023-10-09T20:44:33.422Z,96
2023-10-09T20:47:33.504Z,96
2023-10-09T20:50:34.264Z,96
2023-10-09T20:53:33.241Z,96
2023-10-09T20:56:33.463Z,96
2023-10-09T20:59:31.542Z,96
2023-10-09T21:02:30.877Z,96
2023-10-09T21:05:31.001Z,96
2023-10-09T21:08:31.716Z,96
2023-10-09T21:11:32.538Z,96
2023-10-09T21:14:30.722Z,96
2023-10-09T21:17:31.318Z,96
2023-10-09T21:20:33.262Z,96
2023-10-09T21:23:30.888Z,96
2023-10-09T21:26:31.348Z,96
2023-10-09T21:29:32.210Z,97
2023-10-09T21:32:31.030Z,97
2023-10-09T21:35:31.006Z,97
2023-10-09T21:38:31.828Z,97
2023-10-09T21:41:31.585Z,97
2023-10-09T21:44:31.627Z,97
2023-10-09T21:47:32.392Z,97
2023-10-09T21:50:34.096Z,97
2023-10-09T21:53:32.803Z,97
2023-10-09T21:56:33.473Z,97
2023-10-09T21:59:31.433Z,97
2023-10-09T22:02:31.921Z,97
2023-10-09T22:05:31.862Z,97
2023-10-09T22:08:32.610Z,97
2023-10-09T22:11:30.720Z,97
2023-10-09T22:14:31.182Z,97
2023-10-09T22:17:33.020Z,97
2023-10-09T22:20:31.013Z,97
2023-10-09T22:23:31.291Z,97
2023-10-09T22:26:32.096Z,98
2023-10-09T22:29:31.092Z,98
2023-10-09T22:32:31.141Z,98
2023-10-09T22:35:31.833Z,98
2023-10-09T22:39:14.172Z,98
2023-10-09T22:41:32.621Z,98
2023-10-09T22:44:32.191Z,98
2023-10-09T22:47:32.884Z,98
2023-10-09T22:50:33.249Z,98
2023-10-09T22:53:33.949Z,98
2023-10-09T22:56:34.860Z,98
2023-10-09T22:59:30.884Z,98
2023-10-09T23:02:31.106Z,99
2023-10-09T23:05:31.649Z,99
2023-10-09T23:08:31.361Z,99
2023-10-09T23:11:31.547Z,99
2023-10-09T23:14:32.293Z,99
2023-10-09T23:17:34.129Z,99
2023-10-09T23:20:32.343Z,99
2023-10-09T23:23:32.568Z,99
2023-10-09T23:26:34.469Z,99
2023-10-09T23:29:32.746Z,99
2023-10-09T23:32:32.933Z,99
2023-10-09T23:35:33.702Z,99
2023-10-09T23:38:32.514Z,99
2023-10-09T23:41:32.549Z,99
2023-10-09T23:44:33.320Z,99
2023-10-09T23:47:33.224Z,99
2023-10-09T23:50:33.139Z,99
2023-10-09T23:53:34.328Z,99
2023-10-09T23:56:33.097Z,99
2023-10-09T23:59:30.651Z,99
